Time;durP1;ratioP1;P1;durP2;ratioP2;P2;SDS_P1;SDS_P2;PMS_P1;PMS_P2;Temp;Humidity;BMP_temperature;BMP_pressure;BME280_temperature;BME280_humidity;BME280_pressure;Samples;Min_cycle;Max_cycle;Signal;HPM_P1;HPM_P2
2022/06/25 00:00:19;;;;;;;2.40;2.20;;;;;;;;;;4562741;27;20126;-70
2022/06/25 00:02:29;;;;;;;2.50;2.30;;;;;;;;;;4564043;28;20039;-70
2022/06/25 00:07:09;;;;;;;2.15;2.03;;;;;;;;;;4563513;28;20071;-70
2022/06/25 00:09:19;;;;;;;2.35;2.15;;;;;;;;;;4563172;28;20136;-70
2022/06/25 00:14:03;;;;;;;2.47;2.25;;;;;;;;;;4571922;28;20557;-70
2022/06/25 00:16:14;;;;;;;2.65;2.20;;;;;;;;;;4562521;28;20029;-70
2022/06/25 00:18:25;;;;;;;2.20;2.00;;;;;;;;;;4563137;28;20059;-69
2022/06/25 00:20:35;;;;;;;2.17;1.88;;;;;;;;;;4564022;28;20102;-70
2022/06/25 00:22:46;;;;;;;2.40;2.20;;;;;;;;;;4564365;28;20125;-70
2022/06/25 00:24:56;;;;;;;2.28;2.08;;;;;;;;;;4561641;27;20468;-70
2022/06/25 00:27:07;;;;;;;3.80;2.10;;;;;;;;;;4561628;28;20056;-70
2022/06/25 00:29:17;;;;;;;2.28;1.90;;;;;;;;;;4572465;28;20059;-70
2022/06/25 00:31:28;;;;;;;2.10;2.00;;;;;;;;;;4564425;27;20068;-70
2022/06/25 00:33:38;;;;;;;2.03;1.88;;;;;;;;;;4565549;28;20024;-70
2022/06/25 00:35:49;;;;;;;3.00;2.00;;;;;;;;;;4563769;28;20115;-70
2022/06/25 00:37:59;;;;;;;2.45;1.85;;;;;;;;;;4561675;28;20036;-70
2022/06/25 00:40:10;;;;;;;2.20;2.00;;;;;;;;;;4563112;28;20043;-70
2022/06/25 00:42:22;;;;;;;1.90;1.67;;;;;;;;;;4571088;27;20650;-70
2022/06/25 00:44:33;;;;;;;1.85;1.75;;;;;;;;;;4564105;28;20156;-69
2022/06/25 00:46:49;;;;;;;1.75;1.63;;;;;;;;;;4565676;27;20400;-70
2022/06/25 00:48:59;;;;;;;1.60;1.50;;;;;;;;;;4565593;27;20226;-70
2022/06/25 00:51:13;;;;;;;2.15;1.80;;;;;;;;;;4565266;28;20234;-70
2022/06/25 00:53:26;;;;;;;2.25;1.83;;;;;;;;;;4564550;28;20024;-70
2022/06/25 00:55:38;;;;;;;1.90;1.70;;;;;;;;;;4567043;28;20035;-70
2022/06/25 00:57:50;;;;;;;1.98;1.70;;;;;;;;;;4562185;28;20037;-70
2022/06/25 01:00:06;;;;;;;2.05;1.85;;;;;;;;;;4562945;28;20806;-70
2022/06/25 01:02:17;;;;;;;;;;;;;;;;;;4562829;28;20086;-69
2022/06/25 01:04:29;;;;;;;1.85;1.75;;;;;;;;;;4562789;28;19959;-70
2022/06/25 01:06:40;;;;;;;2.10;1.90;;;;;;;;;;4564150;28;20040;-70
2022/06/25 01:08:50;;;;;;;2.88;2.00;;;;;;;;;;4564656;27;20396;-70
2022/06/25 01:11:02;;;;;;;2.88;2.08;;;;;;;;;;4561796;28;20075;-70
2022/06/25 01:13:13;;;;;;;2.00;1.80;;;;;;;;;;4563481;27;20031;-70
2022/06/25 01:15:23;;;;;;;2.17;1.98;;;;;;;;;;4562197;28;20043;-70
2022/06/25 01:17:38;;;;;;;2.10;1.90;;;;;;;;;;4565024;28;20133;-70
2022/06/25 01:19:50;;;;;;;2.20;2.00;;;;;;;;;;4544699;28;20754;-70
2022/06/25 01:22:07;;;;;;;2.00;1.80;;;;;;;;;;4550394;28;20071;-69
2022/06/25 01:24:18;;;;;;;2.67;2.13;;;;;;;;;;4560526;28;20225;-70
2022/06/25 01:26:32;;;;;;;3.67;2.22;;;;;;;;;;4570684;28;20032;-70
2022/06/25 01:28:43;;;;;;;2.03;1.83;;;;;;;;;;4547598;28;20110;-70
2022/06/25 01:30:53;;;;;;;2.20;1.90;;;;;;;;;;4548046;28;20056;-70
2022/06/25 01:33:08;;;;;;;1.95;1.75;;;;;;;;;;4562421;28;20029;-70
2022/06/25 01:35:18;;;;;;;2.65;1.70;;;;;;;;;;4559787;28;20040;-70
2022/06/25 01:37:29;;;;;;;2.03;1.60;;;;;;;;;;4563228;28;20036;-70
2022/06/25 01:39:39;;;;;;;2.80;1.70;;;;;;;;;;4562308;28;20036;-70
2022/06/25 01:41:50;;;;;;;2.17;1.40;;;;;;;;;;4564933;28;20154;-70
2022/06/25 01:44:00;;;;;;;1.83;1.73;;;;;;;;;;4562117;27;20064;-70
2022/06/25 01:46:11;;;;;;;1.92;1.60;;;;;;;;;;4549258;28;20317;-71
2022/06/25 01:48:23;;;;;;;2.03;1.67;;;;;;;;;;4561573;28;20038;-70
2022/06/25 01:50:35;;;;;;;2.83;1.80;;;;;;;;;;4573879;28;20039;-70
2022/06/25 01:52:47;;;;;;;1.60;1.50;;;;;;;;;;4556081;28;20044;-70
2022/06/25 01:54:57;;;;;;;1.33;1.23;;;;;;;;;;4565347;28;20027;-71
2022/06/25 01:57:08;;;;;;;1.80;1.38;;;;;;;;;;4564169;28;20404;-70
2022/06/25 01:59:19;;;;;;;1.60;1.30;;;;;;;;;;4556988;28;20625;-70
2022/06/25 02:01:29;;;;;;;1.42;1.30;;;;;;;;;;4563813;28;20081;-70
2022/06/25 02:03:40;;;;;;;1.50;1.40;;;;;;;;;;4564606;28;20707;-69
2022/06/25 02:05:57;;;;;;;2.20;1.80;;;;;;;;;;4565004;28;20040;-70
2022/06/25 02:08:11;;;;;;;;;;;;;;;;;;4566128;28;20066;-70
2022/06/25 02:10:21;;;;;;;1.75;1.23;;;;;;;;;;4574419;28;20055;-70
2022/06/25 02:12:32;;;;;;;1.65;1.52;;;;;;;;;;4565416;28;20037;-70
2022/06/25 02:14:42;;;;;;;2.75;1.60;;;;;;;;;;4565153;27;20105;-70
2022/06/25 02:16:53;;;;;;;2.22;1.50;;;;;;;;;;4567322;28;20036;-70
2022/06/25 02:19:04;;;;;;;2.10;1.30;;;;;;;;;;4566800;28;20027;-70
2022/06/25 02:21:16;;;;;;;2.00;1.60;;;;;;;;;;4557596;28;20110;-70
2022/06/25 02:23:26;;;;;;;1.65;1.30;;;;;;;;;;4567150;27;20082;-70
2022/06/25 02:25:42;;;;;;;2.15;1.42;;;;;;;;;;4568379;27;20132;-70
2022/06/25 02:27:52;;;;;;;1.30;1.20;;;;;;;;;;4568987;28;20024;-70
2022/06/25 02:30:03;;;;;;;2.17;1.42;;;;;;;;;;4567917;27;20043;-70
2022/06/25 02:32:16;;;;;;;2.95;1.58;;;;;;;;;;4572344;28;20274;-69
2022/06/25 02:34:27;;;;;;;1.73;1.30;;;;;;;;;;4567565;28;20066;-71
2022/06/25 02:36:38;;;;;;;1.50;1.40;;;;;;;;;;4567501;28;20091;-70
2022/06/25 02:38:52;;;;;;;1.45;1.23;;;;;;;;;;4569082;27;20032;-70
2022/06/25 02:41:03;;;;;;;1.75;1.20;;;;;;;;;;4567872;28;20036;-70
2022/06/25 02:43:19;;;;;;;2.10;1.25;;;;;;;;;;4568158;28;20544;-70
2022/06/25 02:45:36;;;;;;;1.30;1.00;;;;;;;;;;4568098;28;20040;-70
2022/06/25 02:47:46;;;;;;;2.55;1.20;;;;;;;;;;4564448;28;20549;-70
2022/06/25 02:49:57;;;;;;;1.30;1.17;;;;;;;;;;4574930;28;20626;-70
2022/06/25 02:52:08;;;;;;;1.38;1.10;;;;;;;;;;4567017;28;20024;-70
2022/06/25 02:54:18;;;;;;;1.67;1.30;;;;;;;;;;4567561;28;20032;-70
2022/06/25 02:58:58;;;;;;;1.30;1.20;;;;;;;;;;4574667;28;20618;-70
2022/06/25 03:01:13;;;;;;;1.20;1.10;;;;;;;;;;4563088;28;20032;-70
2022/06/25 03:03:23;;;;;;;1.20;1.10;;;;;;;;;;4567465;27;20016;-70
2022/06/25 03:05:35;;;;;;;1.20;1.10;;;;;;;;;;4567208;28;20037;-69
2022/06/25 03:07:47;;;;;;;1.15;1.00;;;;;;;;;;4548737;28;21239;-70
2022/06/25 03:09:58;;;;;;;2.03;1.08;;;;;;;;;;4571931;28;20078;-70
2022/06/25 03:12:08;;;;;;;1.00;1.00;;;;;;;;;;4566621;27;20572;-69
2022/06/25 03:14:21;;;;;;;1.45;1.20;;;;;;;;;;4566955;28;20304;-70
2022/06/25 03:16:32;;;;;;;2.53;1.10;;;;;;;;;;4567624;27;20041;-70
2022/06/25 03:18:43;;;;;;;2.10;1.30;;;;;;;;;;4567583;28;20076;-70
2022/06/25 03:21:16;;;;;;;2.30;1.20;;;;;;;;;;4565875;27;20118;-70
2022/06/25 03:23:27;;;;;;;1.52;1.20;;;;;;;;;;4568123;28;20936;-70
2022/06/25 03:25:38;;;;;;;1.48;1.20;;;;;;;;;;4549902;28;20718;-70
2022/06/25 03:27:49;;;;;;;1.20;1.10;;;;;;;;;;4565125;28;20032;-70
2022/06/25 03:30:00;;;;;;;1.70;1.23;;;;;;;;;;4565018;27;20475;-70
2022/06/25 03:32:11;;;;;;;1.05;0.95;;;;;;;;;;4573884;28;20040;-70
2022/06/25 03:34:31;;;;;;;2.20;0.90;;;;;;;;;;4564714;28;20029;-70
2022/06/25 03:36:43;;;;;;;1.85;1.10;;;;;;;;;;4567572;28;20522;-70
2022/06/25 03:38:53;;;;;;;2.25;1.08;;;;;;;;;;4569569;27;20088;-70
2022/06/25 03:43:35;;;;;;;1.00;1.00;;;;;;;;;;4572524;28;20103;-70
2022/06/25 03:45:45;;;;;;;1.80;1.10;;;;;;;;;;4565600;28;20032;-70
2022/06/25 03:47:56;;;;;;;1.70;1.17;;;;;;;;;;4562431;28;20047;-71
2022/06/25 03:50:07;;;;;;;1.30;1.20;;;;;;;;;;4565084;28;20036;-70
2022/06/25 03:52:18;;;;;;;1.75;1.02;;;;;;;;;;4565976;28;20032;-70
2022/06/25 03:54:29;;;;;;;2.30;1.50;;;;;;;;;;4564187;27;20157;-70
2022/06/25 03:56:39;;;;;;;4.50;1.08;;;;;;;;;;4564482;28;20032;-70
2022/06/25 03:58:51;;;;;;;1.75;1.20;;;;;;;;;;4571047;28;20037;-70
2022/06/25 04:01:01;;;;;;;1.45;1.10;;;;;;;;;;4570681;28;20028;-70
2022/06/25 04:03:12;;;;;;;2.63;1.30;;;;;;;;;;4563525;28;20037;-70
2022/06/25 04:05:40;;;;;;;1.90;1.38;;;;;;;;;;4561520;28;20686;-70
2022/06/25 04:08:14;;;;;;;2.65;1.20;;;;;;;;;;4558096;28;20660;-70
2022/06/25 04:10:25;;;;;;;1.40;1.20;;;;;;;;;;4571432;28;20129;-70
2022/06/25 04:12:35;;;;;;;2.70;1.40;;;;;;;;;;4560375;27;20043;-70
2022/06/25 04:14:46;;;;;;;2.30;1.13;;;;;;;;;;4565920;28;20676;-70
2022/06/25 04:16:56;;;;;;;2.33;1.00;;;;;;;;;;4547324;28;20475;-71
2022/06/25 04:19:07;;;;;;;2.25;1.10;;;;;;;;;;4564531;28;20070;-70
2022/06/25 04:21:18;;;;;;;3.45;1.10;;;;;;;;;;4565493;27;20248;-70
2022/06/25 04:23:30;;;;;;;1.25;1.10;;;;;;;;;;4564446;28;20024;-71
2022/06/25 04:25:40;;;;;;;2.42;1.10;;;;;;;;;;4564615;28;20539;-71
2022/06/25 04:30:20;;;;;;;1.20;1.10;;;;;;;;;;4562305;28;20040;-70
2022/06/25 04:32:34;;;;;;;1.10;1.00;;;;;;;;;;4562775;28;20050;-70
2022/06/25 04:34:54;;;;;;;1.67;1.05;;;;;;;;;;4550517;28;20803;-71
2022/06/25 04:37:05;;;;;;;1.10;0.90;;;;;;;;;;4564614;28;20035;-70
2022/06/25 04:39:16;;;;;;;1.17;1.08;;;;;;;;;;4567212;28;20035;-70
2022/06/25 04:41:27;;;;;;;1.13;1.00;;;;;;;;;;4563661;28;20867;-71
2022/06/25 04:43:42;;;;;;;1.45;1.10;;;;;;;;;;4549837;28;20079;-70
2022/06/25 04:45:58;;;;;;;1.70;0.90;;;;;;;;;;4566792;28;20056;-70
2022/06/25 04:48:11;;;;;;;1.10;0.95;;;;;;;;;;4564147;28;20566;-70
2022/06/25 04:50:48;;;;;;;0.77;0.77;;;;;;;;;;4557046;28;20159;-71
2022/06/25 04:52:59;;;;;;;1.10;0.95;;;;;;;;;;4564953;28;20034;-70
2022/06/25 04:55:10;;;;;;;1.10;1.00;;;;;;;;;;4555796;28;20118;-70
2022/06/25 04:57:21;;;;;;;0.93;0.82;;;;;;;;;;4571730;28;20137;-71
2022/06/25 04:59:57;;;;;;;1.05;0.90;;;;;;;;;;4563603;28;20043;-70
2022/06/25 05:02:16;;;;;;;1.25;0.90;;;;;;;;;;4566809;28;20040;-70
2022/06/25 05:04:34;;;;;;;1.45;1.20;;;;;;;;;;4549289;28;20576;-70
2022/06/25 05:06:45;;;;;;;2.15;0.80;;;;;;;;;;4564224;27;20083;-70
2022/06/25 05:08:56;;;;;;;1.13;0.90;;;;;;;;;;4554764;28;20603;-69
2022/06/25 05:11:06;;;;;;;2.25;1.10;;;;;;;;;;4571206;28;20047;-70
2022/06/25 05:13:16;;;;;;;1.20;1.00;;;;;;;;;;4546704;28;20071;-70
2022/06/25 05:15:29;;;;;;;1.23;0.90;;;;;;;;;;4568801;28;20032;-70
2022/06/25 05:17:39;;;;;;;1.48;1.15;;;;;;;;;;4561006;28;20033;-70
2022/06/25 05:19:51;;;;;;;1.10;1.00;;;;;;;;;;4565672;28;20291;-70
2022/06/25 05:22:02;;;;;;;1.60;1.27;;;;;;;;;;4565002;27;20020;-70
2022/06/25 05:24:13;;;;;;;2.55;1.38;;;;;;;;;;4565516;28;20511;-70
2022/06/25 05:26:24;;;;;;;1.67;1.10;;;;;;;;;;4567392;28;20035;-70
2022/06/25 05:28:34;;;;;;;1.25;1.13;;;;;;;;;;4569425;28;20393;-70
2022/06/25 05:30:45;;;;;;;1.17;1.02;;;;;;;;;;4564450;28;20029;-70
2022/06/25 05:32:56;;;;;;;1.92;1.25;;;;;;;;;;4550794;28;20120;-71
2022/06/25 05:35:06;;;;;;;2.25;1.10;;;;;;;;;;4567318;28;20120;-70
2022/06/25 05:37:17;;;;;;;1.02;0.93;;;;;;;;;;4567910;28;20567;-70
2022/06/25 05:39:27;;;;;;;1.48;1.00;;;;;;;;;;4568134;28;20093;-70
2022/06/25 05:41:38;;;;;;;1.10;1.00;;;;;;;;;;4568386;28;20036;-70
2022/06/25 05:43:48;;;;;;;1.27;1.10;;;;;;;;;;4565209;28;20039;-70
2022/06/25 05:45:59;;;;;;;1.63;1.17;;;;;;;;;;4565398;28;20043;-70
2022/06/25 05:48:09;;;;;;;1.20;1.10;;;;;;;;;;4566790;28;20032;-70
2022/06/25 05:50:19;;;;;;;1.52;1.10;;;;;;;;;;4566983;28;20578;-69
2022/06/25 05:52:30;;;;;;;1.10;1.00;;;;;;;;;;4566868;28;20068;-70
2022/06/25 05:54:40;;;;;;;2.03;1.10;;;;;;;;;;4566602;28;20048;-70
2022/06/25 05:56:51;;;;;;;1.30;1.02;;;;;;;;;;4564931;28;20614;-70
2022/06/25 05:59:01;;;;;;;1.10;1.00;;;;;;;;;;4564687;28;20139;-69
2022/06/25 06:01:11;;;;;;;2.60;1.20;;;;;;;;;;4566505;28;20025;-69
2022/06/25 06:03:22;;;;;;;1.10;1.00;;;;;;;;;;4566882;27;20029;-69
2022/06/25 06:05:32;;;;;;;1.23;1.13;;;;;;;;;;4564937;28;20051;-70
2022/06/25 06:07:43;;;;;;;1.30;1.10;;;;;;;;;;4566242;28;20024;-70
2022/06/25 06:09:53;;;;;;;1.17;1.00;;;;;;;;;;4574844;28;20044;-70
2022/06/25 06:12:04;;;;;;;1.10;1.00;;;;;;;;;;4567790;27;20048;-69
2022/06/25 06:14:15;;;;;;;1.83;1.25;;;;;;;;;;4581787;27;20122;-70
2022/06/25 06:16:25;;;;;;;1.00;0.90;;;;;;;;;;4566039;28;20078;-70
2022/06/25 06:18:36;;;;;;;1.35;0.90;;;;;;;;;;4573961;28;20078;-70
2022/06/25 06:20:46;;;;;;;1.38;1.02;;;;;;;;;;4565173;28;20348;-70
2022/06/25 06:22:56;;;;;;;1.00;0.90;;;;;;;;;;4567079;28;20055;-70
2022/06/25 06:25:07;;;;;;;2.08;1.33;;;;;;;;;;4574343;28;20082;-69
2022/06/25 06:27:18;;;;;;;1.30;1.05;;;;;;;;;;4564603;28;20111;-70
2022/06/25 06:29:29;;;;;;;1.13;1.02;;;;;;;;;;4565932;28;20288;-70
2022/06/25 06:31:39;;;;;;;1.42;1.08;;;;;;;;;;4582587;27;20031;-69
2022/06/25 06:33:50;;;;;;;1.20;1.10;;;;;;;;;;4565281;28;20028;-69
2022/06/25 06:36:00;;;;;;;1.98;1.20;;;;;;;;;;4565054;27;20085;-70
2022/06/25 06:38:10;;;;;;;1.58;1.02;;;;;;;;;;4565993;28;20024;-67
2022/06/25 06:40:21;;;;;;;1.20;1.10;;;;;;;;;;4565016;28;20068;-67
2022/06/25 06:42:31;;;;;;;0.95;0.90;;;;;;;;;;4563921;28;20107;-67
2022/06/25 06:44:42;;;;;;;1.17;1.08;;;;;;;;;;4564612;28;20603;-67
2022/06/25 06:46:52;;;;;;;1.45;0.90;;;;;;;;;;4562791;28;20032;-68
2022/06/25 06:49:03;;;;;;;1.52;1.15;;;;;;;;;;4567088;28;20064;-67
2022/06/25 06:51:13;;;;;;;1.30;1.10;;;;;;;;;;4562438;28;20025;-67
2022/06/25 06:53:24;;;;;;;1.10;1.00;;;;;;;;;;4564308;28;20628;-67
2022/06/25 06:55:34;;;;;;;2.03;1.00;;;;;;;;;;4573013;28;20477;-67
2022/06/25 06:57:44;;;;;;;2.28;1.10;;;;;;;;;;4563800;28;20033;-67
2022/06/25 06:59:55;;;;;;;1.33;0.82;;;;;;;;;;4564966;27;20036;-67
2022/06/25 07:02:06;;;;;;;0.90;0.90;;;;;;;;;;4564687;27;20028;-67
2022/06/25 07:04:17;;;;;;;1.73;1.20;;;;;;;;;;4564163;28;20787;-67
2022/06/25 07:06:27;;;;;;;1.40;1.20;;;;;;;;;;4565012;27;20044;-67
2022/06/25 07:08:37;;;;;;;1.33;1.13;;;;;;;;;;4562917;28;20036;-68
2022/06/25 07:10:48;;;;;;;1.42;1.13;;;;;;;;;;4555544;28;20074;-67
2022/06/25 07:12:58;;;;;;;1.13;0.95;;;;;;;;;;4562578;28;20052;-68
2022/06/25 07:15:09;;;;;;;1.88;1.10;;;;;;;;;;4565611;28;20052;-67
2022/06/25 07:17:20;;;;;;;1.35;1.02;;;;;;;;;;4563122;28;20339;-67
2022/06/25 07:19:30;;;;;;;1.65;0.90;;;;;;;;;;4563618;28;20591;-68
2022/06/25 07:21:40;;;;;;;1.17;0.90;;;;;;;;;;4563914;27;20115;-68
2022/06/25 07:23:51;;;;;;;0.88;0.80;;;;;;;;;;4562767;28;20075;-67
2022/06/25 07:26:02;;;;;;;1.35;1.08;;;;;;;;;;4563331;28;20085;-68
2022/06/25 07:28:12;;;;;;;1.15;0.90;;;;;;;;;;4563919;28;20028;-67
2022/06/25 07:30:24;;;;;;;0.80;0.80;;;;;;;;;;4562948;28;20473;-68
2022/06/25 07:32:34;;;;;;;1.27;0.90;;;;;;;;;;4561395;28;20032;-67
2022/06/25 07:34:45;;;;;;;0.98;0.90;;;;;;;;;;4563778;27;20892;-68
2022/06/25 07:36:55;;;;;;;1.35;0.90;;;;;;;;;;4565312;28;20488;-68
2022/06/25 07:39:05;;;;;;;1.17;0.98;;;;;;;;;;4564620;28;20043;-67
2022/06/25 07:41:16;;;;;;;1.10;1.00;;;;;;;;;;4564546;28;20051;-68
2022/06/25 07:43:27;;;;;;;1.77;1.00;;;;;;;;;;4563470;27;20124;-67
2022/06/25 07:45:37;;;;;;;1.02;1.00;;;;;;;;;;4563399;27;20151;-67
2022/06/25 07:47:48;;;;;;;1.48;1.00;;;;;;;;;;4562993;28;20052;-68
2022/06/25 07:52:27;;;;;;;1.13;0.80;;;;;;;;;;4565801;28;20038;-68
2022/06/25 07:54:38;;;;;;;0.93;0.85;;;;;;;;;;4565060;28;20400;-68
2022/06/25 07:56:48;;;;;;;1.00;0.88;;;;;;;;;;4563858;27;20623;-68
2022/06/25 07:58:59;;;;;;;1.25;0.90;;;;;;;;;;4563252;27;20037;-68
2022/06/25 08:01:10;;;;;;;0.85;0.80;;;;;;;;;;4562063;28;20322;-68
2022/06/25 08:03:21;;;;;;;1.05;0.90;;;;;;;;;;4564772;28;20036;-68
2022/06/25 08:05:35;;;;;;;2.05;0.80;;;;;;;;;;4563156;28;20151;-68
2022/06/25 08:07:46;;;;;;;1.27;0.90;;;;;;;;;;4548900;28;20037;-68
2022/06/25 08:09:56;;;;;;;0.85;0.80;;;;;;;;;;4578628;27;20043;-67
2022/06/25 08:12:07;;;;;;;1.10;1.00;;;;;;;;;;4563471;27;20101;-68
2022/06/25 08:14:18;;;;;;;1.10;0.90;;;;;;;;;;4563181;28;20396;-68
2022/06/25 08:16:28;;;;;;;1.48;0.98;;;;;;;;;;4562389;28;20124;-68
2022/06/25 08:18:39;;;;;;;1.08;0.93;;;;;;;;;;4565020;27;20055;-68
2022/06/25 08:20:49;;;;;;;1.70;1.02;;;;;;;;;;4564938;28;20115;-67
2022/06/25 08:23:00;;;;;;;0.50;0.50;;;;;;;;;;4565962;27;20047;-67
2022/06/25 08:25:10;;;;;;;0.70;0.50;;;;;;;;;;4561920;28;20545;-68
2022/06/25 08:27:21;;;;;;;0.40;0.40;;;;;;;;;;4564000;28;20024;-68
2022/06/25 08:29:32;;;;;;;0.60;0.60;;;;;;;;;;4565076;28;20052;-68
2022/06/25 08:31:42;;;;;;;0.52;0.52;;;;;;;;;;4566189;28;20087;-68
2022/06/25 08:33:52;;;;;;;0.50;0.50;;;;;;;;;;4563803;28;20039;-68
2022/06/25 08:36:04;;;;;;;0.45;0.45;;;;;;;;;;4568743;28;20024;-69
2022/06/25 08:38:16;;;;;;;0.50;0.50;;;;;;;;;;4572152;28;20040;-67
2022/06/25 08:40:27;;;;;;;0.50;0.50;;;;;;;;;;4563881;27;20027;-68
2022/06/25 08:42:37;;;;;;;0.50;0.50;;;;;;;;;;4563436;28;20098;-68
2022/06/25 08:44:48;;;;;;;0.60;0.50;;;;;;;;;;4561025;28;20036;-68
2022/06/25 08:46:58;;;;;;;0.50;0.50;;;;;;;;;;4563178;27;20028;-68
2022/06/25 08:49:10;;;;;;;0.60;0.60;;;;;;;;;;4561947;28;20363;-68
2022/06/25 08:51:20;;;;;;;0.50;0.50;;;;;;;;;;4565415;28;20024;-68
2022/06/25 08:53:32;;;;;;;0.68;0.50;;;;;;;;;;4562056;28;20036;-67
2022/06/25 08:55:44;;;;;;;0.50;0.50;;;;;;;;;;4571751;28;20039;-68
2022/06/25 08:57:56;;;;;;;0.50;0.50;;;;;;;;;;4563072;28;20041;-68
2022/06/25 09:00:07;;;;;;;0.57;0.57;;;;;;;;;;4563260;28;20032;-68
2022/06/25 09:02:17;;;;;;;0.50;0.50;;;;;;;;;;4562552;28;20024;-68
2022/06/25 09:04:28;;;;;;;0.50;0.50;;;;;;;;;;4562523;28;20501;-68
2022/06/25 09:06:38;;;;;;;0.40;0.40;;;;;;;;;;4561931;28;20061;-68
2022/06/25 09:09:11;;;;;;;0.73;0.50;;;;;;;;;;4563387;28;20817;-69
2022/06/25 09:11:22;;;;;;;1.02;0.60;;;;;;;;;;4563863;28;20043;-68
2022/06/25 09:13:32;;;;;;;0.50;0.50;;;;;;;;;;4561997;27;20043;-68
2022/06/25 09:15:45;;;;;;;0.40;0.40;;;;;;;;;;4564201;27;20039;-68
2022/06/25 09:17:56;;;;;;;0.50;0.50;;;;;;;;;;4562805;28;20032;-67
2022/06/25 09:20:07;;;;;;;0.50;0.50;;;;;;;;;;4564454;28;20481;-68
2022/06/25 09:22:18;;;;;;;0.50;0.50;;;;;;;;;;4562015;28;20032;-68
2022/06/25 09:24:58;;;;;;;0.47;0.47;;;;;;;;;;4562254;28;20488;-68
2022/06/25 09:27:09;;;;;;;0.40;0.40;;;;;;;;;;4560841;28;20043;-68
2022/06/25 09:29:20;;;;;;;0.50;0.50;;;;;;;;;;4561958;28;20390;-68
2022/06/25 09:31:34;;;;;;;0.50;0.50;;;;;;;;;;4561790;28;20067;-68
2022/06/25 09:33:47;;;;;;;0.40;0.40;;;;;;;;;;4562023;28;20117;-68
2022/06/25 09:35:58;;;;;;;0.60;0.60;;;;;;;;;;4560604;28;20028;-69
2022/06/25 09:38:11;;;;;;;0.40;0.40;;;;;;;;;;4561204;28;20029;-68
2022/06/25 09:40:21;;;;;;;0.40;0.40;;;;;;;;;;4561920;28;20131;-68
2022/06/25 09:42:33;;;;;;;0.50;0.50;;;;;;;;;;4561960;28;20029;-68
2022/06/25 09:44:44;;;;;;;0.40;0.40;;;;;;;;;;4562561;28;20024;-68
2022/06/25 09:46:56;;;;;;;0.55;0.55;;;;;;;;;;4561509;28;20036;-68
2022/06/25 09:49:21;;;;;;;0.43;0.43;;;;;;;;;;4563115;28;20037;-68
2022/06/25 09:51:33;;;;;;;0.50;0.50;;;;;;;;;;4562256;27;20118;-68
2022/06/25 09:53:49;;;;;;;0.50;0.50;;;;;;;;;;4562003;28;20129;-68
2022/06/25 09:56:01;;;;;;;0.40;0.40;;;;;;;;;;4561033;28;20039;-68
2022/06/25 09:58:12;;;;;;;0.40;0.40;;;;;;;;;;4562768;28;20911;-69
2022/06/25 10:00:23;;;;;;;0.40;0.40;;;;;;;;;;4560865;27;20050;-68
2022/06/25 10:02:33;;;;;;;0.50;0.50;;;;;;;;;;4563352;27;20043;-68
2022/06/25 10:04:46;;;;;;;0.50;0.50;;;;;;;;;;4562015;28;20051;-68
2022/06/25 10:07:00;;;;;;;0.40;0.40;;;;;;;;;;4565398;28;21100;-68
2022/06/25 10:09:10;;;;;;;0.47;0.47;;;;;;;;;;4563141;27;20347;-68
2022/06/25 10:11:24;;;;;;;0.40;0.40;;;;;;;;;;4564583;28;20033;-68
2022/06/25 10:13:34;;;;;;;0.40;0.40;;;;;;;;;;4565503;28;20993;-68
2022/06/25 10:15:46;;;;;;;0.47;0.47;;;;;;;;;;4563381;28;20037;-68
2022/06/25 10:18:03;;;;;;;0.47;0.47;;;;;;;;;;4557911;28;20037;-68
2022/06/25 10:20:15;;;;;;;0.50;0.50;;;;;;;;;;4566238;28;20494;-68
2022/06/25 10:22:27;;;;;;;0.50;0.50;;;;;;;;;;4564957;28;20572;-68
2022/06/25 10:24:38;;;;;;;0.40;0.40;;;;;;;;;;4564096;28;20036;-69
2022/06/25 10:26:48;;;;;;;0.30;0.30;;;;;;;;;;4534471;28;20033;-68
2022/06/25 10:29:03;;;;;;;0.50;0.50;;;;;;;;;;4573224;28;20044;-68
2022/06/25 10:31:16;;;;;;;0.60;0.60;;;;;;;;;;4556526;28;20603;-68
2022/06/25 10:33:29;;;;;;;0.50;0.50;;;;;;;;;;4564023;28;20031;-68
2022/06/25 10:35:40;;;;;;;0.30;0.30;;;;;;;;;;4564297;28;20112;-68
2022/06/25 10:37:59;;;;;;;0.40;0.40;;;;;;;;;;4566152;28;21636;-68
2022/06/25 10:40:09;;;;;;;0.50;0.50;;;;;;;;;;4563973;28;20068;-67
2022/06/25 10:44:49;;;;;;;0.50;0.50;;;;;;;;;;4564256;28;20036;-68
2022/06/25 10:47:08;;;;;;;0.50;0.50;;;;;;;;;;4563291;28;30303;-68
2022/06/25 10:49:21;;;;;;;0.40;0.40;;;;;;;;;;4547939;28;20040;-68
2022/06/25 10:51:38;;;;;;;0.85;0.50;;;;;;;;;;4562453;28;20029;-68
2022/06/25 10:53:48;;;;;;;0.40;0.40;;;;;;;;;;4565043;28;20028;-68
2022/06/25 10:56:00;;;;;;;0.45;0.45;;;;;;;;;;4563627;27;20032;-68
2022/06/25 10:58:11;;;;;;;0.30;0.30;;;;;;;;;;4564370;28;20035;-67
2022/06/25 11:00:22;;;;;;;0.40;0.40;;;;;;;;;;4564583;28;20036;-68
2022/06/25 11:02:40;;;;;;;0.40;0.40;;;;;;;;;;4564341;28;20033;-68
2022/06/25 11:04:52;;;;;;;0.40;0.40;;;;;;;;;;4562674;28;20078;-68
2022/06/25 11:07:11;;;;;;;0.30;0.30;;;;;;;;;;4563292;28;20089;-68
2022/06/25 11:09:21;;;;;;;0.43;0.43;;;;;;;;;;4562565;28;20056;-68
2022/06/25 11:11:33;;;;;;;0.30;0.30;;;;;;;;;;4563660;28;20031;-68
2022/06/25 11:13:43;;;;;;;0.40;0.40;;;;;;;;;;4563579;28;20032;-69
2022/06/25 11:15:54;;;;;;;0.40;0.40;;;;;;;;;;4563364;28;20511;-68
2022/06/25 11:18:09;;;;;;;0.38;0.38;;;;;;;;;;4565487;27;20040;-68
2022/06/25 11:20:19;;;;;;;0.30;0.30;;;;;;;;;;4566978;28;20739;-69
2022/06/25 11:22:30;;;;;;;0.30;0.30;;;;;;;;;;4571581;27;20036;-68
2022/06/25 11:28:47;;;;;;;0.30;0.30;;;;;;;;;;4563573;28;20783;-68
2022/06/25 11:29:48;;;;;;;0.40;0.40;;;;;;;;;;4562754;28;20239;-67
2022/06/25 11:31:59;;;;;;;0.40;0.40;;;;;;;;;;4563566;28;20040;-68
2022/06/25 11:34:16;;;;;;;0.38;0.38;;;;;;;;;;4564901;28;20045;-68
2022/06/25 11:36:27;;;;;;;0.40;0.40;;;;;;;;;;4563756;28;20024;-68
2022/06/25 11:38:39;;;;;;;0.40;0.40;;;;;;;;;;4563401;28;20045;-68
2022/06/25 11:40:51;;;;;;;0.52;0.40;;;;;;;;;;4565677;28;20035;-68
2022/06/25 11:43:06;;;;;;;0.40;0.40;;;;;;;;;;4571805;28;21260;-68
2022/06/25 11:45:16;;;;;;;0.47;0.47;;;;;;;;;;4571763;28;20578;-68
2022/06/25 11:47:28;;;;;;;0.30;0.30;;;;;;;;;;4562931;28;20024;-68
2022/06/25 11:49:41;;;;;;;0.30;0.30;;;;;;;;;;4572638;28;20756;-68
2022/06/25 11:51:52;;;;;;;0.40;0.40;;;;;;;;;;4566123;28;20028;-68
2022/06/25 11:54:04;;;;;;;0.30;0.30;;;;;;;;;;4564204;28;20782;-68
2022/06/25 11:56:15;;;;;;;0.20;0.20;;;;;;;;;;4563680;28;20590;-68
2022/06/25 11:58:27;;;;;;;0.20;0.20;;;;;;;;;;4562641;28;20094;-68
2022/06/25 12:00:37;;;;;;;0.30;0.30;;;;;;;;;;4565281;28;20032;-68
2022/06/25 12:03:00;;;;;;;0.20;0.20;;;;;;;;;;4567426;28;20356;-68
2022/06/25 12:05:11;;;;;;;0.50;0.50;;;;;;;;;;4563715;28;20035;-68
2022/06/25 12:07:24;;;;;;;0.30;0.30;;;;;;;;;;4559810;28;20028;-68
2022/06/25 12:09:35;;;;;;;0.28;0.28;;;;;;;;;;4565680;28;21227;-68
2022/06/25 12:11:52;;;;;;;0.30;0.30;;;;;;;;;;4564742;27;20021;-68
2022/06/25 12:14:02;;;;;;;0.60;0.45;;;;;;;;;;4562948;28;20036;-68
2022/06/25 12:16:13;;;;;;;0.30;0.30;;;;;;;;;;4561006;28;20036;-68
2022/06/25 12:18:36;;;;;;;0.30;0.30;;;;;;;;;;4561453;28;20040;-68
2022/06/25 12:20:56;;;;;;;0.50;0.50;;;;;;;;;;4564542;28;20032;-68
2022/06/25 12:23:07;;;;;;;0.30;0.30;;;;;;;;;;4565633;28;20047;-67
2022/06/25 12:25:34;;;;;;;0.30;0.20;;;;;;;;;;4564243;28;20539;-68
2022/06/25 12:27:46;;;;;;;0.20;0.20;;;;;;;;;;4564424;28;20796;-68
2022/06/25 12:29:58;;;;;;;0.20;0.20;;;;;;;;;;4564773;28;20032;-67
2022/06/25 12:32:08;;;;;;;0.10;0.10;;;;;;;;;;4560874;28;20528;-67
2022/06/25 12:34:19;;;;;;;0.10;0.10;;;;;;;;;;4564192;28;20398;-67
2022/06/25 12:36:30;;;;;;;0.17;0.17;;;;;;;;;;4563291;28;20525;-67
2022/06/25 12:38:40;;;;;;;0.10;0.10;;;;;;;;;;4561972;28;20739;-68
2022/06/25 12:40:51;;;;;;;0.20;0.20;;;;;;;;;;4563567;28;20182;-68
2022/06/25 12:43:04;;;;;;;0.30;0.30;;;;;;;;;;4561566;27;20059;-67
2022/06/25 12:45:19;;;;;;;0.25;0.25;;;;;;;;;;4546339;28;20078;-67
2022/06/25 12:47:40;;;;;;;0.17;0.17;;;;;;;;;;4562825;28;20043;-67
2022/06/25 12:49:53;;;;;;;0.20;0.20;;;;;;;;;;4564528;27;20048;-67
2022/06/25 12:52:04;;;;;;;0.20;0.20;;;;;;;;;;4562093;28;20032;-67
2022/06/25 12:54:14;;;;;;;0.20;0.20;;;;;;;;;;4563334;27;20024;-68
2022/06/25 12:56:25;;;;;;;0.20;0.20;;;;;;;;;;4560516;28;20181;-67
2022/06/25 12:58:37;;;;;;;0.30;0.30;;;;;;;;;;4563910;28;20115;-67
2022/06/25 13:00:47;;;;;;;0.30;0.30;;;;;;;;;;4570552;28;20044;-68
2022/06/25 13:02:58;;;;;;;0.30;0.30;;;;;;;;;;4562019;28;20040;-67
2022/06/25 13:05:08;;;;;;;0.17;0.17;;;;;;;;;;4561869;28;20033;-67
2022/06/25 13:07:19;;;;;;;0.20;0.20;;;;;;;;;;4563882;28;20072;-67
2022/06/25 13:09:30;;;;;;;0.20;0.20;;;;;;;;;;4564625;28;20036;-67
2022/06/25 13:11:40;;;;;;;0.20;0.20;;;;;;;;;;4561253;28;20036;-67
2022/06/25 13:13:51;;;;;;;0.17;0.17;;;;;;;;;;4562828;28;20040;-68
2022/06/25 13:16:01;;;;;;;0.20;0.20;;;;;;;;;;4562235;28;20059;-67
2022/06/25 13:18:12;;;;;;;0.17;0.17;;;;;;;;;;4571809;28;20511;-67
2022/06/25 13:20:22;;;;;;;0.20;0.20;;;;;;;;;;4563442;28;20021;-67
2022/06/25 13:22:33;;;;;;;0.20;0.20;;;;;;;;;;4563530;27;20055;-67
2022/06/25 13:24:44;;;;;;;0.20;0.20;;;;;;;;;;4563504;27;20119;-67
2022/06/25 13:26:55;;;;;;;0.20;0.20;;;;;;;;;;4562281;28;20067;-67
2022/06/25 13:29:05;;;;;;;0.20;0.20;;;;;;;;;;4562022;28;20040;-67
2022/06/25 13:31:16;;;;;;;0.20;0.20;;;;;;;;;;4563835;27;20418;-67